sensor_id;sensor_type;location;lat;lon;timestamp;P1;durP1;ratioP1;P2;durP2;ratioP2
51326;SDS011;37412;52.836;6.362;2023-03-19T00:02:25;26.85;;;21.52;;
51326;SDS011;37412;52.836;6.362;2023-03-19T00:05:11;26.33;;;21.60;;
51326;SDS011;37412;52.836;6.362;2023-03-19T00:07:57;28.05;;;22.08;;
51326;SDS011;37412;52.836;6.362;2023-03-19T00:10:43;29.15;;;21.92;;
51326;SDS011;37412;52.836;6.362;2023-03-19T00:13:29;26.17;;;20.98;;
51326;SDS011;37412;52.836;6.362;2023-03-19T00:16:15;26.05;;;20.30;;
51326;SDS011;37412;52.836;6.362;2023-03-19T00:19:01;22.27;;;19.10;;
51326;SDS011;37412;52.836;6.362;2023-03-19T00:21:48;25.42;;;19.42;;
51326;SDS011;37412;52.836;6.362;2023-03-19T00:24:34;23.80;;;19.33;;
51326;SDS011;37412;52.836;6.362;2023-03-19T00:27:20;23.23;;;18.13;;
51326;SDS011;37412;52.836;6.362;2023-03-19T00:30:06;22.67;;;18.30;;
51326;SDS011;37412;52.836;6.362;2023-03-19T00:32:53;23.58;;;18.13;;
51326;SDS011;37412;52.836;6.362;2023-03-19T00:35:39;22.10;;;17.13;;
51326;SDS011;37412;52.836;6.362;2023-03-19T00:38:25;21.17;;;18.70;;
51326;SDS011;37412;52.836;6.362;2023-03-19T00:41:11;23.00;;;18.38;;
51326;SDS011;37412;52.836;6.362;2023-03-19T00:43:58;22.02;;;17.50;;
51326;SDS011;37412;52.836;6.362;2023-03-19T00:46:44;24.08;;;17.67;;
51326;SDS011;37412;52.836;6.362;2023-03-19T00:49:30;21.20;;;17.00;;
51326;SDS011;37412;52.836;6.362;2023-03-19T00:52:16;20.85;;;17.15;;
51326;SDS011;37412;52.836;6.362;2023-03-19T00:55:02;21.02;;;17.42;;
51326;SDS011;37412;52.836;6.362;2023-03-19T00:57:50;22.15;;;17.40;;
51326;SDS011;37412;52.836;6.362;2023-03-19T01:00:36;22.63;;;16.88;;
51326;SDS011;37412;52.836;6.362;2023-03-19T01:03:23;18.55;;;15.18;;
51326;SDS011;37412;52.836;6.362;2023-03-19T01:06:09;21.88;;;17.17;;
51326;SDS011;37412;52.836;6.362;2023-03-19T01:08:56;17.80;;;14.57;;
51326;SDS011;37412;52.836;6.362;2023-03-19T01:11:42;21.27;;;14.75;;
51326;SDS011;37412;52.836;6.362;2023-03-19T01:14:28;14.80;;;12.98;;
51326;SDS011;37412;52.836;6.362;2023-03-19T01:17:14;14.60;;;12.80;;
51326;SDS011;37412;52.836;6.362;2023-03-19T01:20:00;16.15;;;12.82;;
51326;SDS011;37412;52.836;6.362;2023-03-19T01:22:46;18.20;;;13.93;;
51326;SDS011;37412;52.836;6.362;2023-03-19T01:25:33;18.10;;;12.30;;
51326;SDS011;37412;52.836;6.362;2023-03-19T01:28:20;15.63;;;12.48;;
51326;SDS011;37412;52.836;6.362;2023-03-19T01:31:07;14.98;;;11.77;;
51326;SDS011;37412;52.836;6.362;2023-03-19T01:33:53;13.75;;;11.45;;
51326;SDS011;37412;52.836;6.362;2023-03-19T01:36:39;13.75;;;11.40;;
51326;SDS011;37412;52.836;6.362;2023-03-19T01:39:25;15.48;;;11.25;;
51326;SDS011;37412;52.836;6.362;2023-03-19T01:42:12;15.70;;;11.52;;
51326;SDS011;37412;52.836;6.362;2023-03-19T01:45:00;15.32;;;11.20;;
51326;SDS011;37412;52.836;6.362;2023-03-19T01:47:47;11.85;;;10.60;;
51326;SDS011;37412;52.836;6.362;2023-03-19T01:50:37;12.23;;;9.73;;
51326;SDS011;37412;52.836;6.362;2023-03-19T01:53:27;15.32;;;9.75;;
51326;SDS011;37412;52.836;6.362;2023-03-19T01:56:17;12.45;;;9.65;;
51326;SDS011;37412;52.836;6.362;2023-03-19T01:59:16;11.18;;;8.70;;
51326;SDS011;37412;52.836;6.362;2023-03-19T02:02:09;11.10;;;8.55;;
51326;SDS011;37412;52.836;6.362;2023-03-19T02:08:10;9.30;;;7.05;;
51326;SDS011;37412;52.836;6.362;2023-03-19T02:10:59;10.73;;;7.00;;
51326;SDS011;37412;52.836;6.362;2023-03-19T02:13:46;8.80;;;6.63;;
51326;SDS011;37412;52.836;6.362;2023-03-19T02:16:32;9.93;;;6.70;;
51326;SDS011;37412;52.836;6.362;2023-03-19T02:22:25;7.10;;;6.32;;
51326;SDS011;37412;52.836;6.362;2023-03-19T02:25:15;8.98;;;5.50;;
51326;SDS011;37412;52.836;6.362;2023-03-19T02:28:26;7.20;;;5.57;;
51326;SDS011;37412;52.836;6.362;2023-03-19T02:31:13;6.13;;;5.53;;
51326;SDS011;37412;52.836;6.362;2023-03-19T02:34:04;8.18;;;5.47;;
51326;SDS011;37412;52.836;6.362;2023-03-19T02:36:56;7.28;;;5.07;;
51326;SDS011;37412;52.836;6.362;2023-03-19T02:39:53;5.13;;;4.25;;
51326;SDS011;37412;52.836;6.362;2023-03-19T02:42:49;6.43;;;4.95;;
51326;SDS011;37412;52.836;6.362;2023-03-19T02:45:35;5.93;;;4.72;;
51326;SDS011;37412;52.836;6.362;2023-03-19T02:48:21;6.60;;;4.70;;
51326;SDS011;37412;52.836;6.362;2023-03-19T02:51:08;5.03;;;4.50;;
51326;SDS011;37412;52.836;6.362;2023-03-19T02:53:54;4.75;;;4.35;;
51326;SDS011;37412;52.836;6.362;2023-03-19T02:56:40;5.25;;;4.60;;
51326;SDS011;37412;52.836;6.362;2023-03-19T02:59:25;5.88;;;4.65;;
51326;SDS011;37412;52.836;6.362;2023-03-19T03:02:11;4.88;;;4.10;;
51326;SDS011;37412;52.836;6.362;2023-03-19T03:04:57;7.85;;;4.70;;
51326;SDS011;37412;52.836;6.362;2023-03-19T03:07:43;5.15;;;4.40;;
51326;SDS011;37412;52.836;6.362;2023-03-19T03:10:30;4.93;;;4.40;;
51326;SDS011;37412;52.836;6.362;2023-03-19T03:13:17;6.45;;;4.53;;
51326;SDS011;37412;52.836;6.362;2023-03-19T03:16:03;5.80;;;4.38;;
51326;SDS011;37412;52.836;6.362;2023-03-19T03:18:49;5.97;;;4.43;;
51326;SDS011;37412;52.836;6.362;2023-03-19T03:21:35;6.88;;;4.68;;
51326;SDS011;37412;52.836;6.362;2023-03-19T03:24:21;7.15;;;4.72;;
51326;SDS011;37412;52.836;6.362;2023-03-19T03:27:08;5.53;;;4.63;;
51326;SDS011;37412;52.836;6.362;2023-03-19T03:29:54;6.30;;;4.90;;
51326;SDS011;37412;52.836;6.362;2023-03-19T03:32:40;5.30;;;4.32;;
51326;SDS011;37412;52.836;6.362;2023-03-19T03:35:26;7.72;;;5.28;;
51326;SDS011;37412;52.836;6.362;2023-03-19T03:38:13;5.25;;;4.60;;
51326;SDS011;37412;52.836;6.362;2023-03-19T03:40:59;6.93;;;5.45;;
51326;SDS011;37412;52.836;6.362;2023-03-19T03:43:45;4.90;;;4.40;;
51326;SDS011;37412;52.836;6.362;2023-03-19T03:46:32;6.75;;;4.53;;
51326;SDS011;37412;52.836;6.362;2023-03-19T03:49:18;6.47;;;5.13;;
51326;SDS011;37412;52.836;6.362;2023-03-19T03:52:04;6.82;;;5.25;;
51326;SDS011;37412;52.836;6.362;2023-03-19T03:54:51;6.93;;;5.68;;
51326;SDS011;37412;52.836;6.362;2023-03-19T03:57:37;6.82;;;5.65;;
51326;SDS011;37412;52.836;6.362;2023-03-19T04:00:23;6.25;;;5.65;;
51326;SDS011;37412;52.836;6.362;2023-03-19T04:03:09;7.45;;;6.03;;
51326;SDS011;37412;52.836;6.362;2023-03-19T04:05:55;8.90;;;7.18;;
51326;SDS011;37412;52.836;6.362;2023-03-19T04:08:41;8.27;;;7.15;;
51326;SDS011;37412;52.836;6.362;2023-03-19T04:11:27;9.93;;;7.93;;
51326;SDS011;37412;52.836;6.362;2023-03-19T04:14:13;8.60;;;7.40;;
51326;SDS011;37412;52.836;6.362;2023-03-19T04:16:59;10.43;;;6.93;;
51326;SDS011;37412;52.836;6.362;2023-03-19T04:19:45;9.73;;;7.15;;
51326;SDS011;37412;52.836;6.362;2023-03-19T04:22:31;10.23;;;7.72;;
51326;SDS011;37412;52.836;6.362;2023-03-19T04:25:17;9.52;;;7.65;;
51326;SDS011;37412;52.836;6.362;2023-03-19T04:28:03;8.10;;;7.00;;
51326;SDS011;37412;52.836;6.362;2023-03-19T04:30:49;9.95;;;7.15;;
51326;SDS011;37412;52.836;6.362;2023-03-19T04:33:35;9.38;;;7.35;;
51326;SDS011;37412;52.836;6.362;2023-03-19T04:36:21;9.32;;;7.30;;
51326;SDS011;37412;52.836;6.362;2023-03-19T04:39:07;8.88;;;7.30;;
51326;SDS011;37412;52.836;6.362;2023-03-19T04:41:54;9.60;;;7.68;;
51326;SDS011;37412;52.836;6.362;2023-03-19T04:44:41;8.45;;;7.35;;
51326;SDS011;37412;52.836;6.362;2023-03-19T04:47:27;10.45;;;7.18;;
51326;SDS011;37412;52.836;6.362;2023-03-19T04:50:13;10.30;;;7.68;;
51326;SDS011;37412;52.836;6.362;2023-03-19T04:52:59;10.02;;;7.57;;
51326;SDS011;37412;52.836;6.362;2023-03-19T04:55:45;9.27;;;7.93;;
51326;SDS011;37412;52.836;6.362;2023-03-19T04:58:31;9.02;;;7.97;;
51326;SDS011;37412;52.836;6.362;2023-03-19T05:01:18;12.35;;;7.90;;
51326;SDS011;37412;52.836;6.362;2023-03-19T05:04:04;10.05;;;7.90;;
51326;SDS011;37412;52.836;6.362;2023-03-19T05:06:50;12.10;;;8.00;;
51326;SDS011;37412;52.836;6.362;2023-03-19T05:09:36;12.05;;;8.27;;
51326;SDS011;37412;52.836;6.362;2023-03-19T05:12:21;11.65;;;9.73;;
51326;SDS011;37412;52.836;6.362;2023-03-19T05:15:08;12.63;;;9.93;;
51326;SDS011;37412;52.836;6.362;2023-03-19T05:17:54;9.25;;;8.30;;
51326;SDS011;37412;52.836;6.362;2023-03-19T05:20:40;11.90;;;7.45;;
51326;SDS011;37412;52.836;6.362;2023-03-19T05:23:26;8.75;;;7.45;;
51326;SDS011;37412;52.836;6.362;2023-03-19T05:26:12;9.02;;;7.25;;
51326;SDS011;37412;52.836;6.362;2023-03-19T05:29:00;11.10;;;7.10;;
51326;SDS011;37412;52.836;6.362;2023-03-19T05:31:46;9.88;;;8.10;;
51326;SDS011;37412;52.836;6.362;2023-03-19T05:34:32;8.40;;;6.65;;
51326;SDS011;37412;52.836;6.362;2023-03-19T05:37:18;9.18;;;6.75;;
51326;SDS011;37412;52.836;6.362;2023-03-19T05:40:04;8.90;;;6.97;;
51326;SDS011;37412;52.836;6.362;2023-03-19T05:42:51;10.15;;;7.45;;
51326;SDS011;37412;52.836;6.362;2023-03-19T05:45:37;7.80;;;6.80;;
51326;SDS011;37412;52.836;6.362;2023-03-19T05:48:23;8.25;;;6.60;;
51326;SDS011;37412;52.836;6.362;2023-03-19T05:51:10;7.15;;;6.22;;
51326;SDS011;37412;52.836;6.362;2023-03-19T05:53:56;8.18;;;6.38;;
51326;SDS011;37412;52.836;6.362;2023-03-19T05:56:42;8.77;;;7.10;;
51326;SDS011;37412;52.836;6.362;2023-03-19T05:59:28;10.02;;;7.20;;
51326;SDS011;37412;52.836;6.362;2023-03-19T07:36:24;9.48;;;8.45;;
51326;SDS011;37412;52.836;6.362;2023-03-19T12:28:28;23.35;;;17.02;;
51326;SDS011;37412;52.836;6.362;2023-03-19T12:37:06;22.63;;;16.45;;
51326;SDS011;37412;52.836;6.362;2023-03-19T12:43:50;21.33;;;16.67;;
51326;SDS011;37412;52.836;6.362;2023-03-19T12:49:59;22.80;;;16.33;;
51326;SDS011;37412;52.836;6.362;2023-03-19T12:52:50;25.58;;;17.88;;
51326;SDS011;37412;52.836;6.362;2023-03-19T12:55:44;22.17;;;17.30;;
51326;SDS011;37412;52.836;6.362;2023-03-19T12:58:40;19.55;;;15.45;;
51326;SDS011;37412;52.836;6.362;2023-03-19T13:01:50;28.77;;;20.05;;
51326;SDS011;37412;52.836;6.362;2023-03-19T13:04:57;19.92;;;15.63;;
51326;SDS011;37412;52.836;6.362;2023-03-19T13:08:15;19.08;;;14.77;;
51326;SDS011;37412;52.836;6.362;2023-03-19T13:11:05;19.73;;;15.32;;
51326;SDS011;37412;52.836;6.362;2023-03-19T13:14:07;20.58;;;15.43;;
51326;SDS011;37412;52.836;6.362;2023-03-19T13:17:36;26.83;;;14.68;;
51326;SDS011;37412;52.836;6.362;2023-03-19T13:24:13;17.50;;;13.45;;
51326;SDS011;37412;52.836;6.362;2023-03-19T13:27:00;18.40;;;14.30;;
51326;SDS011;37412;52.836;6.362;2023-03-19T13:33:02;18.40;;;13.77;;
51326;SDS011;37412;52.836;6.362;2023-03-19T13:35:50;16.05;;;13.57;;
51326;SDS011;37412;52.836;6.362;2023-03-19T13:38:42;20.50;;;15.30;;
51326;SDS011;37412;52.836;6.362;2023-03-19T13:53:19;27.77;;;20.00;;
51326;SDS011;37412;52.836;6.362;2023-03-19T13:56:11;32.47;;;23.10;;
51326;SDS011;37412;52.836;6.362;2023-03-19T13:59:21;33.05;;;22.33;;
51326;SDS011;37412;52.836;6.362;2023-03-19T14:05:07;34.85;;;23.05;;
51326;SDS011;37412;52.836;6.362;2023-03-19T14:08:01;34.60;;;21.55;;
51326;SDS011;37412;52.836;6.362;2023-03-19T14:11:03;30.05;;;19.08;;
51326;SDS011;37412;52.836;6.362;2023-03-19T14:13:50;30.02;;;19.30;;
51326;SDS011;37412;52.836;6.362;2023-03-19T14:16:39;28.58;;;18.20;;
51326;SDS011;37412;52.836;6.362;2023-03-19T14:19:28;31.45;;;19.63;;
51326;SDS011;37412;52.836;6.362;2023-03-19T14:22:19;31.83;;;19.25;;
51326;SDS011;37412;52.836;6.362;2023-03-19T14:25:19;32.00;;;18.33;;
51326;SDS011;37412;52.836;6.362;2023-03-19T14:28:09;32.38;;;18.95;;
51326;SDS011;37412;52.836;6.362;2023-03-19T14:30:55;35.88;;;20.25;;
51326;SDS011;37412;52.836;6.362;2023-03-19T14:33:42;40.63;;;21.08;;
51326;SDS011;37412;52.836;6.362;2023-03-19T14:36:34;36.73;;;20.57;;
51326;SDS011;37412;52.836;6.362;2023-03-19T14:42:26;32.80;;;17.75;;
51326;SDS011;37412;52.836;6.362;2023-03-19T14:57:42;29.70;;;17.63;;
51326;SDS011;37412;52.836;6.362;2023-03-19T15:00:29;28.15;;;16.80;;
51326;SDS011;37412;52.836;6.362;2023-03-19T15:03:33;29.52;;;17.02;;
51326;SDS011;37412;52.836;6.362;2023-03-19T15:06:24;31.10;;;17.63;;
51326;SDS011;37412;52.836;6.362;2023-03-19T15:09:20;29.42;;;16.83;;
51326;SDS011;37412;52.836;6.362;2023-03-19T15:18:22;30.45;;;17.45;;
51326;SDS011;37412;52.836;6.362;2023-03-19T15:21:09;30.45;;;17.33;;
51326;SDS011;37412;52.836;6.362;2023-03-19T15:23:56;30.73;;;17.33;;
51326;SDS011;37412;52.836;6.362;2023-03-19T15:26:44;32.17;;;17.60;;
51326;SDS011;37412;52.836;6.362;2023-03-19T15:29:31;34.38;;;17.25;;
51326;SDS011;37412;52.836;6.362;2023-03-19T15:32:39;31.88;;;17.58;;
51326;SDS011;37412;52.836;6.362;2023-03-19T15:35:28;36.25;;;18.42;;
51326;SDS011;37412;52.836;6.362;2023-03-19T15:38:17;36.50;;;19.13;;
51326;SDS011;37412;52.836;6.362;2023-03-19T15:41:09;38.92;;;19.25;;
51326;SDS011;37412;52.836;6.362;2023-03-19T15:43:56;39.08;;;22.65;;
51326;SDS011;37412;52.836;6.362;2023-03-19T15:46:42;39.78;;;23.73;;
51326;SDS011;37412;52.836;6.362;2023-03-19T15:49:31;40.17;;;23.42;;
51326;SDS011;37412;52.836;6.362;2023-03-19T15:52:23;38.67;;;22.77;;
51326;SDS011;37412;52.836;6.362;2023-03-19T15:55:11;40.10;;;23.50;;
51326;SDS011;37412;52.836;6.362;2023-03-19T15:58:01;37.08;;;22.00;;
51326;SDS011;37412;52.836;6.362;2023-03-19T16:00:51;36.90;;;22.80;;
51326;SDS011;37412;52.836;6.362;2023-03-19T16:03:39;38.22;;;22.90;;
51326;SDS011;37412;52.836;6.362;2023-03-19T16:06:28;37.38;;;22.00;;
51326;SDS011;37412;52.836;6.362;2023-03-19T16:21:03;41.75;;;23.95;;
51326;SDS011;37412;52.836;6.362;2023-03-19T16:23:52;39.67;;;23.15;;
51326;SDS011;37412;52.836;6.362;2023-03-19T16:26:53;43.03;;;24.63;;
51326;SDS011;37412;52.836;6.362;2023-03-19T16:29:41;42.85;;;25.23;;
51326;SDS011;37412;52.836;6.362;2023-03-19T16:32:30;44.17;;;25.88;;
51326;SDS011;37412;52.836;6.362;2023-03-19T16:35:16;43.53;;;24.73;;
51326;SDS011;37412;52.836;6.362;2023-03-19T16:38:15;42.08;;;24.95;;
51326;SDS011;37412;52.836;6.362;2023-03-19T16:41:22;42.47;;;25.33;;
51326;SDS011;37412;52.836;6.362;2023-03-19T16:44:11;43.30;;;25.20;;
51326;SDS011;37412;52.836;6.362;2023-03-19T16:47:00;49.40;;;27.58;;
51326;SDS011;37412;52.836;6.362;2023-03-19T16:49:50;46.00;;;26.63;;
51326;SDS011;37412;52.836;6.362;2023-03-19T16:52:36;49.70;;;27.75;;
51326;SDS011;37412;52.836;6.362;2023-03-19T16:55:24;48.63;;;28.10;;
51326;SDS011;37412;52.836;6.362;2023-03-19T16:58:27;51.70;;;32.63;;
51326;SDS011;37412;52.836;6.362;2023-03-19T17:01:20;46.90;;;28.13;;
51326;SDS011;37412;52.836;6.362;2023-03-19T17:04:10;48.75;;;28.38;;
51326;SDS011;37412;52.836;6.362;2023-03-19T17:07:01;49.42;;;28.10;;
51326;SDS011;37412;52.836;6.362;2023-03-19T17:09:47;53.05;;;30.27;;
51326;SDS011;37412;52.836;6.362;2023-03-19T17:12:33;52.83;;;31.20;;
51326;SDS011;37412;52.836;6.362;2023-03-19T17:15:26;54.35;;;31.23;;
51326;SDS011;37412;52.836;6.362;2023-03-19T17:18:18;56.28;;;32.30;;
51326;SDS011;37412;52.836;6.362;2023-03-19T17:21:26;56.13;;;32.58;;
51326;SDS011;37412;52.836;6.362;2023-03-19T17:24:32;55.72;;;32.75;;
51326;SDS011;37412;52.836;6.362;2023-03-19T17:27:19;58.40;;;33.92;;
51326;SDS011;37412;52.836;6.362;2023-03-19T17:30:05;57.40;;;32.75;;
51326;SDS011;37412;52.836;6.362;2023-03-19T17:32:52;61.25;;;34.78;;
51326;SDS011;37412;52.836;6.362;2023-03-19T17:35:40;60.55;;;35.15;;
51326;SDS011;37412;52.836;6.362;2023-03-19T17:38:29;58.70;;;33.47;;
51326;SDS011;37412;52.836;6.362;2023-03-19T17:41:18;58.20;;;35.22;;
51326;SDS011;37412;52.836;6.362;2023-03-19T17:44:05;60.15;;;34.47;;
51326;SDS011;37412;52.836;6.362;2023-03-19T17:46:52;61.50;;;35.70;;
51326;SDS011;37412;52.836;6.362;2023-03-19T17:49:38;59.80;;;35.20;;
51326;SDS011;37412;52.836;6.362;2023-03-19T17:52:26;59.83;;;33.92;;
51326;SDS011;37412;52.836;6.362;2023-03-19T17:55:15;57.17;;;32.58;;
51326;SDS011;37412;52.836;6.362;2023-03-19T17:58:02;59.60;;;32.85;;
51326;SDS011;37412;52.836;6.362;2023-03-19T18:00:48;60.27;;;32.80;;
51326;SDS011;37412;52.836;6.362;2023-03-19T18:03:35;62.70;;;32.05;;
51326;SDS011;37412;52.836;6.362;2023-03-19T18:06:22;63.03;;;32.97;;
51326;SDS011;37412;52.836;6.362;2023-03-19T18:09:19;62.72;;;32.60;;
51326;SDS011;37412;52.836;6.362;2023-03-19T18:12:05;60.15;;;31.10;;
51326;SDS011;37412;52.836;6.362;2023-03-19T18:14:55;55.60;;;29.35;;
51326;SDS011;37412;52.836;6.362;2023-03-19T18:17:43;56.10;;;30.38;;
51326;SDS011;37412;52.836;6.362;2023-03-19T18:20:34;51.75;;;28.13;;
51326;SDS011;37412;52.836;6.362;2023-03-19T18:23:22;49.72;;;27.80;;
51326;SDS011;37412;52.836;6.362;2023-03-19T18:26:09;47.80;;;27.35;;
51326;SDS011;37412;52.836;6.362;2023-03-19T18:28:56;46.75;;;27.05;;
51326;SDS011;37412;52.836;6.362;2023-03-19T18:31:46;46.70;;;26.67;;
51326;SDS011;37412;52.836;6.362;2023-03-19T18:34:33;46.20;;;27.23;;
51326;SDS011;37412;52.836;6.362;2023-03-19T18:37:19;47.17;;;26.48;;
51326;SDS011;37412;52.836;6.362;2023-03-19T18:40:05;46.00;;;26.35;;
51326;SDS011;37412;52.836;6.362;2023-03-19T18:42:54;41.35;;;25.17;;
51326;SDS011;37412;52.836;6.362;2023-03-19T18:45:40;43.65;;;25.80;;
51326;SDS011;37412;52.836;6.362;2023-03-19T18:48:28;47.75;;;25.73;;
51326;SDS011;37412;52.836;6.362;2023-03-19T18:51:16;40.72;;;24.05;;
51326;SDS011;37412;52.836;6.362;2023-03-19T18:54:02;38.47;;;27.10;;
51326;SDS011;37412;52.836;6.362;2023-03-19T18:56:47;53.67;;;39.28;;
51326;SDS011;37412;52.836;6.362;2023-03-19T18:59:35;29.27;;;18.70;;
51326;SDS011;37412;52.836;6.362;2023-03-19T19:02:27;29.45;;;19.67;;
51326;SDS011;37412;52.836;6.362;2023-03-19T19:05:17;36.28;;;26.98;;
51326;SDS011;37412;52.836;6.362;2023-03-19T19:08:15;32.42;;;24.92;;
51326;SDS011;37412;52.836;6.362;2023-03-19T19:11:02;23.38;;;18.50;;
51326;SDS011;37412;52.836;6.362;2023-03-19T19:13:51;22.63;;;16.58;;
51326;SDS011;37412;52.836;6.362;2023-03-19T19:16:42;25.40;;;21.23;;
51326;SDS011;37412;52.836;6.362;2023-03-19T19:19:28;62.88;;;51.85;;
51326;SDS011;37412;52.836;6.362;2023-03-19T19:22:15;24.50;;;18.73;;
51326;SDS011;37412;52.836;6.362;2023-03-19T19:25:02;27.98;;;22.13;;
51326;SDS011;37412;52.836;6.362;2023-03-19T19:27:50;19.98;;;15.23;;
51326;SDS011;37412;52.836;6.362;2023-03-19T19:30:42;22.13;;;17.42;;
51326;SDS011;37412;52.836;6.362;2023-03-19T19:33:31;17.00;;;12.63;;
51326;SDS011;37412;52.836;6.362;2023-03-19T19:36:19;18.55;;;15.10;;
51326;SDS011;37412;52.836;6.362;2023-03-19T19:39:07;17.17;;;12.73;;
51326;SDS011;37412;52.836;6.362;2023-03-19T19:41:53;15.27;;;12.27;;
51326;SDS011;37412;52.836;6.362;2023-03-19T19:44:40;14.77;;;12.07;;
51326;SDS011;37412;52.836;6.362;2023-03-19T19:47:26;14.03;;;10.53;;
51326;SDS011;37412;52.836;6.362;2023-03-19T19:50:16;14.07;;;11.70;;
51326;SDS011;37412;52.836;6.362;2023-03-19T19:53:02;11.93;;;10.10;;
51326;SDS011;37412;52.836;6.362;2023-03-19T19:55:48;13.70;;;11.30;;
51326;SDS011;37412;52.836;6.362;2023-03-19T19:58:35;24.80;;;19.10;;
51326;SDS011;37412;52.836;6.362;2023-03-19T20:01:22;36.50;;;28.17;;
51326;SDS011;37412;52.836;6.362;2023-03-19T20:04:13;12.13;;;9.80;;
51326;SDS011;37412;52.836;6.362;2023-03-19T20:06:59;13.35;;;10.60;;
51326;SDS011;37412;52.836;6.362;2023-03-19T20:09:45;13.82;;;10.40;;
51326;SDS011;37412;52.836;6.362;2023-03-19T20:12:32;12.68;;;10.02;;
51326;SDS011;37412;52.836;6.362;2023-03-19T20:15:19;12.10;;;10.00;;
51326;SDS011;37412;52.836;6.362;2023-03-19T20:18:15;12.48;;;9.98;;
51326;SDS011;37412;52.836;6.362;2023-03-19T20:21:02;12.13;;;10.45;;
51326;SDS011;37412;52.836;6.362;2023-03-19T20:23:48;12.70;;;10.32;;
51326;SDS011;37412;52.836;6.362;2023-03-19T20:26:39;13.75;;;11.20;;
51326;SDS011;37412;52.836;6.362;2023-03-19T20:29:27;12.65;;;10.75;;
51326;SDS011;37412;52.836;6.362;2023-03-19T20:32:26;12.18;;;10.23;;
51326;SDS011;37412;52.836;6.362;2023-03-19T20:35:18;13.02;;;10.68;;
51326;SDS011;37412;52.836;6.362;2023-03-19T20:38:07;28.40;;;20.88;;
51326;SDS011;37412;52.836;6.362;2023-03-19T20:40:55;12.52;;;11.23;;
51326;SDS011;37412;52.836;6.362;2023-03-19T20:43:43;14.47;;;11.57;;
51326;SDS011;37412;52.836;6.362;2023-03-19T20:46:29;13.30;;;11.30;;
51326;SDS011;37412;52.836;6.362;2023-03-19T20:49:15;14.13;;;12.00;;
51326;SDS011;37412;52.836;6.362;2023-03-19T20:52:01;24.88;;;17.67;;
51326;SDS011;37412;52.836;6.362;2023-03-19T20:54:47;13.68;;;11.18;;
51326;SDS011;37412;52.836;6.362;2023-03-19T20:57:33;14.90;;;11.95;;
51326;SDS011;37412;52.836;6.362;2023-03-19T21:00:23;19.13;;;13.90;;
51326;SDS011;37412;52.836;6.362;2023-03-19T21:03:14;13.82;;;11.30;;
51326;SDS011;37412;52.836;6.362;2023-03-19T21:06:11;17.67;;;13.07;;
51326;SDS011;37412;52.836;6.362;2023-03-19T21:08:58;17.92;;;13.00;;
51326;SDS011;37412;52.836;6.362;2023-03-19T21:11:47;17.55;;;13.48;;
51326;SDS011;37412;52.836;6.362;2023-03-19T21:14:33;14.90;;;12.07;;
51326;SDS011;37412;52.836;6.362;2023-03-19T21:17:20;22.15;;;15.00;;
51326;SDS011;37412;52.836;6.362;2023-03-19T21:20:07;14.68;;;11.07;;
51326;SDS011;37412;52.836;6.362;2023-03-19T21:26:16;11.55;;;9.70;;
51326;SDS011;37412;52.836;6.362;2023-03-19T21:29:07;10.00;;;8.52;;
51326;SDS011;37412;52.836;6.362;2023-03-19T21:31:59;10.90;;;8.83;;
51326;SDS011;37412;52.836;6.362;2023-03-19T21:34:45;10.48;;;8.88;;
51326;SDS011;37412;52.836;6.362;2023-03-19T21:37:33;9.77;;;7.88;;
51326;SDS011;37412;52.836;6.362;2023-03-19T21:40:20;10.60;;;8.60;;
51326;SDS011;37412;52.836;6.362;2023-03-19T21:43:14;10.88;;;8.80;;
51326;SDS011;37412;52.836;6.362;2023-03-19T21:46:04;11.75;;;9.20;;
51326;SDS011;37412;52.836;6.362;2023-03-19T21:48:54;10.85;;;8.88;;
51326;SDS011;37412;52.836;6.362;2023-03-19T21:51:41;11.10;;;8.68;;
51326;SDS011;37412;52.836;6.362;2023-03-19T21:54:28;11.13;;;9.10;;
51326;SDS011;37412;52.836;6.362;2023-03-19T21:57:14;11.35;;;9.20;;
51326;SDS011;37412;52.836;6.362;2023-03-19T22:00:01;12.15;;;9.02;;
51326;SDS011;37412;52.836;6.362;2023-03-19T22:02:49;10.88;;;8.60;;
51326;SDS011;37412;52.836;6.362;2023-03-19T22:05:35;11.88;;;9.30;;
51326;SDS011;37412;52.836;6.362;2023-03-19T22:08:22;10.82;;;9.05;;
51326;SDS011;37412;52.836;6.362;2023-03-19T22:11:12;12.55;;;9.57;;
51326;SDS011;37412;52.836;6.362;2023-03-19T22:16:56;12.80;;;10.25;;
51326;SDS011;37412;52.836;6.362;2023-03-19T22:19:42;13.15;;;10.25;;
51326;SDS011;37412;52.836;6.362;2023-03-19T22:22:28;13.40;;;10.60;;
51326;SDS011;37412;52.836;6.362;2023-03-19T22:25:14;13.85;;;11.05;;
51326;SDS011;37412;52.836;6.362;2023-03-19T22:28:04;15.00;;;11.55;;
51326;SDS011;37412;52.836;6.362;2023-03-19T22:31:09;15.95;;;11.30;;
51326;SDS011;37412;52.836;6.362;2023-03-19T22:33:56;18.05;;;12.85;;
51326;SDS011;37412;52.836;6.362;2023-03-19T22:36:42;19.35;;;13.07;;
51326;SDS011;37412;52.836;6.362;2023-03-19T22:39:29;17.98;;;12.68;;
51326;SDS011;37412;52.836;6.362;2023-03-19T22:42:15;21.10;;;13.82;;
51326;SDS011;37412;52.836;6.362;2023-03-19T22:45:01;19.95;;;14.05;;
51326;SDS011;37412;52.836;6.362;2023-03-19T22:47:47;22.75;;;14.95;;
51326;SDS011;37412;52.836;6.362;2023-03-19T22:50:33;24.52;;;15.70;;
